Time;durP1;ratioP1;P1;durP2;ratioP2;P2;SDS_P1;SDS_P2;PMS_P1;PMS_P2;Temp;Humidity;BMP_temperature;BMP_pressure;BME280_temperature;BME280_humidity;BME280_pressure;Samples;Min_cycle;Max_cycle;Signal;HPM_P1;HPM_P2
2024/02/21 00:01:39;;;;;;;1999.90;999.90;;;9.40;99.90;;;;;;5097616;28;20024;-88
2024/02/21 00:04:05;;;;;;;1999.90;999.90;;;9.40;99.90;;;;;;5115408;28;20153;-88
2024/02/21 00:06:31;;;;;;;1999.90;999.90;;;9.40;99.90;;;;;;5115540;28;20050;-88
2024/02/21 00:08:57;;;;;;;1999.90;999.90;;;9.40;99.90;;;;;;5115195;28;20023;-88
2024/02/21 00:11:22;;;;;;;1999.90;999.90;;;9.40;99.90;;;;;;5097428;28;20026;-87
2024/02/21 00:13:48;;;;;;;1999.90;999.90;;;9.40;99.90;;;;;;5115494;28;20422;-88
2024/02/21 00:16:15;;;;;;;1999.90;999.90;;;9.40;99.90;;;;;;5103156;27;20019;-88
2024/02/21 00:18:41;;;;;;;1999.90;999.90;;;9.50;99.90;;;;;;5135871;27;20379;-88
2024/02/21 00:21:07;;;;;;;1999.90;999.90;;;9.50;99.90;;;;;;5136001;27;20065;-87
2024/02/21 00:23:32;;;;;;;1999.90;999.90;;;9.50;99.90;;;;;;5083283;28;20035;-88
2024/02/21 00:25:58;;;;;;;1999.90;999.90;;;9.60;99.90;;;;;;5094654;28;20039;-87
2024/02/21 00:28:24;;;;;;;1999.90;999.90;;;9.60;99.90;;;;;;5121616;27;20024;-88
2024/02/21 00:30:50;;;;;;;1999.90;999.90;;;9.60;99.90;;;;;;5135776;27;20055;-87
2024/02/21 00:33:17;;;;;;;1999.90;999.90;;;9.60;99.90;;;;;;5107746;28;20449;-88
2024/02/21 00:35:42;;;;;;;1999.90;999.90;;;9.60;99.90;;;;;;5114836;27;20026;-88
2024/02/21 00:38:08;;;;;;;1999.90;999.90;;;9.60;99.90;;;;;;5114966;28;20415;-88
2024/02/21 00:40:35;;;;;;;1999.90;999.90;;;9.50;99.90;;;;;;5096630;28;20434;-87
2024/02/21 00:43:00;;;;;;;1999.90;999.90;;;9.60;99.90;;;;;;5114805;28;20051;-87
2024/02/21 00:45:26;;;;;;;1999.90;999.90;;;9.70;99.90;;;;;;5097126;28;20528;-88
2024/02/21 00:47:52;;;;;;;1999.90;999.90;;;9.60;99.90;;;;;;5114857;28;20036;-87
2024/02/21 00:50:17;;;;;;;1999.90;999.90;;;9.60;99.90;;;;;;5096359;28;20031;-87
2024/02/21 00:52:44;;;;;;;1999.90;999.90;;;9.60;99.90;;;;;;5114822;28;20162;-87
2024/02/21 00:55:10;;;;;;;1999.90;999.90;;;9.60;99.90;;;;;;5096428;28;20406;-88
2024/02/21 00:57:36;;;;;;;1999.90;999.90;;;9.60;99.90;;;;;;5114555;28;20023;-87
2024/02/21 01:00:03;;;;;;;1999.90;999.90;;;9.60;99.90;;;;;;5095403;28;20026;-88
2024/02/21 01:02:31;;;;;;;1999.90;999.90;;;9.70;99.90;;;;;;5114496;28;20028;-87
2024/02/21 01:04:57;;;;;;;1999.90;999.90;;;9.80;99.90;;;;;;5094984;28;20456;-87
2024/02/21 01:07:23;;;;;;;1999.90;999.90;;;9.80;99.90;;;;;;5094236;28;20032;-88
2024/02/21 01:09:48;;;;;;;1999.90;999.90;;;9.90;99.90;;;;;;5093985;28;20414;-87
2024/02/21 01:12:14;;;;;;;1999.90;999.90;;;10.00;99.90;;;;;;5075863;28;20024;-87
2024/02/21 01:14:39;;;;;;;1999.90;999.90;;;10.10;99.90;;;;;;5093651;28;20056;-87
2024/02/21 01:17:06;;;;;;;1999.90;999.90;;;10.20;99.90;;;;;;5093711;28;20032;-88
2024/02/21 01:19:32;;;;;;;1999.90;999.90;;;10.20;99.90;;;;;;5093892;28;20020;-88
2024/02/21 01:21:57;;;;;;;1999.90;999.90;;;10.20;99.90;;;;;;5071647;28;20024;-88
2024/02/21 01:24:24;;;;;;;1999.90;999.90;;;10.30;99.90;;;;;;5073413;28;20460;-88
2024/02/21 01:26:49;;;;;;;1999.90;999.90;;;10.20;99.90;;;;;;5073155;28;20036;-87
2024/02/21 01:29:15;;;;;;;1999.90;999.90;;;10.20;99.90;;;;;;5096400;28;20402;-87
2024/02/21 01:31:40;;;;;;;1999.90;999.90;;;10.20;99.90;;;;;;5120397;28;20023;-88
2024/02/21 01:34:06;;;;;;;1999.90;999.90;;;10.30;99.90;;;;;;5107165;28;20041;-88
2024/02/21 01:36:32;;;;;;;1999.90;999.90;;;10.30;99.90;;;;;;5099652;28;20028;-88
2024/02/21 01:38:57;;;;;;;1999.90;999.90;;;10.30;99.90;;;;;;5100263;28;20099;-88
2024/02/21 01:41:23;;;;;;;1999.90;999.90;;;10.40;99.90;;;;;;5093701;28;20016;-87
2024/02/21 01:43:48;;;;;;;1999.90;999.90;;;10.40;99.90;;;;;;5093514;28;20016;-88
2024/02/21 01:46:14;;;;;;;1999.90;999.90;;;10.40;99.90;;;;;;5075017;28;20024;-88
2024/02/21 01:48:40;;;;;;;1999.90;999.90;;;10.30;99.90;;;;;;5074369;28;20394;-87
2024/02/21 01:51:06;;;;;;;1999.90;999.90;;;10.30;99.90;;;;;;5093371;28;20031;-87
2024/02/21 01:53:37;;;;;;;1999.90;999.90;;;10.30;99.90;;;;;;5093196;28;20051;-87
2024/02/21 01:56:05;;;;;;;1999.90;999.90;;;10.20;99.90;;;;;;5093210;28;20031;-87
2024/02/21 01:58:32;;;;;;;1999.90;999.90;;;10.20;99.90;;;;;;5074818;28;20073;-88
2024/02/21 02:00:58;;;;;;;1999.90;999.90;;;10.20;99.90;;;;;;5093305;28;20020;-87
2024/02/21 02:03:25;;;;;;;1999.90;999.90;;;10.20;99.90;;;;;;5093329;28;20077;-88
2024/02/21 02:05:51;;;;;;;1999.90;999.90;;;10.20;99.90;;;;;;5083350;28;20040;-87
2024/02/21 02:08:23;;;;;;;1999.90;999.90;;;10.20;99.90;;;;;;5095143;28;20490;-88
2024/02/21 02:10:49;;;;;;;1999.90;999.90;;;10.20;99.90;;;;;;5113550;28;20032;-87
2024/02/21 02:13:15;;;;;;;1999.90;999.90;;;10.20;99.90;;;;;;5113783;28;20478;-88
2024/02/21 02:15:50;;;;;;;1999.90;999.90;;;10.20;99.90;;;;;;5094548;28;20039;-88
2024/02/21 02:18:17;;;;;;;1999.90;999.90;;;10.10;99.90;;;;;;5095012;28;20023;-88
2024/02/21 02:20:45;;;;;;;1999.90;999.90;;;10.20;99.90;;;;;;5094735;28;20138;-88
2024/02/21 02:23:14;;;;;;;1999.90;999.90;;;10.20;99.90;;;;;;5113038;28;20015;-88
2024/02/21 02:25:40;;;;;;;1999.90;999.90;;;10.30;99.90;;;;;;5094770;28;20110;-88
2024/02/21 02:28:09;;;;;;;1999.90;999.90;;;10.30;99.90;;;;;;5094883;28;20115;-87
2024/02/21 02:30:37;;;;;;;1999.90;999.90;;;10.30;99.90;;;;;;5113071;28;20024;-87
2024/02/21 02:33:04;;;;;;;1999.90;999.90;;;10.30;99.90;;;;;;5094721;28;20432;-88
2024/02/21 02:35:30;;;;;;;1999.90;999.90;;;10.20;99.90;;;;;;5113272;28;20106;-87
2024/02/21 02:37:56;;;;;;;1999.90;999.90;;;10.20;99.90;;;;;;5113054;28;20422;-87
2024/02/21 02:40:22;;;;;;;1999.90;999.90;;;10.20;99.90;;;;;;5113097;28;20547;-87
2024/02/21 02:42:48;;;;;;;1999.90;999.90;;;10.20;99.90;;;;;;5113171;28;20024;-88
2024/02/21 02:45:18;;;;;;;1999.90;999.90;;;10.20;99.90;;;;;;5094774;28;20085;-87
2024/02/21 02:47:47;;;;;;;1999.90;999.90;;;10.30;99.90;;;;;;5094799;28;20024;-87
2024/02/21 02:50:13;;;;;;;1999.90;999.90;;;10.30;99.90;;;;;;5094579;28;20028;-87
2024/02/21 02:52:38;;;;;;;1999.90;999.90;;;10.40;99.90;;;;;;5112843;28;20028;-87
2024/02/21 02:55:05;;;;;;;1999.90;999.90;;;10.30;99.90;;;;;;5094604;28;20118;-87
2024/02/21 02:57:30;;;;;;;1999.90;999.90;;;10.30;99.90;;;;;;5113511;28;20015;-87
2024/02/21 02:59:56;;;;;;;1999.90;999.90;;;10.30;99.90;;;;;;5116594;28;20023;-87
2024/02/21 03:02:22;;;;;;;1999.90;999.90;;;10.30;99.90;;;;;;5117067;28;20020;-87
2024/02/21 03:04:48;;;;;;;1999.90;999.90;;;10.30;99.90;;;;;;5098456;28;20104;-87
2024/02/21 03:07:14;;;;;;;1999.90;999.90;;;10.30;99.90;;;;;;5115277;28;20453;-87
2024/02/21 03:09:40;;;;;;;1999.90;999.90;;;10.30;99.90;;;;;;5098423;28;20038;-87
2024/02/21 03:12:06;;;;;;;1999.90;999.90;;;10.30;99.90;;;;;;5116565;28;20027;-87
2024/02/21 03:14:32;;;;;;;1999.90;999.90;;;10.30;99.90;;;;;;5116810;28;20023;-87
2024/02/21 03:16:58;;;;;;;1999.90;999.90;;;10.30;99.90;;;;;;5098179;28;20019;-88
2024/02/21 03:19:24;;;;;;;1999.90;999.90;;;10.30;99.90;;;;;;5116538;28;20551;-88
2024/02/21 03:21:51;;;;;;;1999.90;999.90;;;10.30;99.90;;;;;;5116446;28;20023;-87
2024/02/21 03:24:17;;;;;;;1999.90;999.90;;;10.30;99.90;;;;;;5098161;28;20490;-88
2024/02/21 03:26:42;;;;;;;1999.90;999.90;;;10.30;99.90;;;;;;5116199;28;20015;-87
2024/02/21 03:29:09;;;;;;;1999.90;999.90;;;10.30;99.90;;;;;;5098194;28;20038;-88
2024/02/21 03:31:35;;;;;;;1999.90;999.90;;;10.30;99.90;;;;;;5098080;28;20020;-87
2024/02/21 03:34:01;;;;;;;1999.90;999.90;;;10.40;99.90;;;;;;5097863;28;20030;-87
2024/02/21 03:36:26;;;;;;;1999.90;999.90;;;10.40;99.90;;;;;;5097899;28;20016;-87
2024/02/21 03:38:53;;;;;;;1999.90;999.90;;;10.50;99.90;;;;;;5116199;28;20024;-87
2024/02/21 03:41:19;;;;;;;1999.90;999.90;;;10.50;99.90;;;;;;5097952;28;20055;-87
2024/02/21 03:43:45;;;;;;;1999.90;999.90;;;10.60;99.90;;;;;;5097900;28;20027;-87
2024/02/21 03:46:10;;;;;;;1999.90;999.90;;;10.60;99.90;;;;;;5116081;28;20092;-87
2024/02/21 03:48:36;;;;;;;1999.90;999.90;;;10.70;99.90;;;;;;5097655;28;20035;-87
2024/02/21 03:51:02;;;;;;;1999.90;999.90;;;10.70;99.90;;;;;;5115249;28;20028;-87
2024/02/21 03:53:28;;;;;;;1999.90;999.90;;;10.80;99.90;;;;;;5115967;28;20031;-88
2024/02/21 03:55:54;;;;;;;1999.90;999.90;;;10.80;99.90;;;;;;5115889;28;20520;-87
2024/02/21 03:58:20;;;;;;;1999.90;999.90;;;10.90;99.90;;;;;;5115908;28;20027;-87
2024/02/21 04:00:46;;;;;;;1999.90;999.90;;;10.90;99.90;;;;;;5115003;28;20028;-87
2024/02/21 04:03:12;;;;;;;1999.90;999.90;;;11.00;99.90;;;;;;5097439;28;20118;-87
2024/02/21 04:05:37;;;;;;;1999.90;999.90;;;11.00;99.90;;;;;;5115880;28;20115;-87
2024/02/21 04:08:06;;;;;;;1999.90;999.90;;;11.10;99.90;;;;;;5097205;28;20181;-87
2024/02/21 04:10:33;;;;;;;1999.90;999.90;;;11.10;99.90;;;;;;5114449;28;20051;-88
2024/02/21 04:12:59;;;;;;;1999.90;999.90;;;11.10;99.90;;;;;;5097406;28;20411;-87
2024/02/21 04:15:24;;;;;;;1999.90;999.90;;;11.10;99.90;;;;;;5097416;28;20474;-87
2024/02/21 04:17:50;;;;;;;1999.90;999.90;;;11.00;99.90;;;;;;5115233;28;20020;-87
2024/02/21 04:20:16;;;;;;;1999.90;999.90;;;11.00;99.90;;;;;;5115145;28;20031;-87
2024/02/21 04:22:45;;;;;;;1999.90;999.90;;;11.00;99.90;;;;;;5096735;28;20023;-87
2024/02/21 04:25:12;;;;;;;1999.90;999.90;;;11.00;99.90;;;;;;5115289;28;20028;-87
2024/02/21 04:27:38;;;;;;;1999.90;999.90;;;10.90;99.90;;;;;;5108617;28;20058;-87
2024/02/21 04:30:05;;;;;;;1999.90;999.90;;;10.90;99.90;;;;;;5095205;28;20032;-87
2024/02/21 04:32:30;;;;;;;1999.90;999.90;;;10.90;99.90;;;;;;5096902;28;20083;-87
2024/02/21 04:34:56;;;;;;;1999.90;999.90;;;10.80;99.90;;;;;;5096826;28;20440;-87
2024/02/21 04:37:21;;;;;;;1999.90;999.90;;;10.70;99.90;;;;;;5115267;28;20027;-87
2024/02/21 04:39:48;;;;;;;1999.90;999.90;;;10.70;99.90;;;;;;5115101;28;20038;-87
2024/02/21 04:42:14;;;;;;;1999.90;999.90;;;10.70;99.90;;;;;;5115183;28;20065;-87
2024/02/21 04:44:40;;;;;;;1999.90;999.90;;;10.70;99.90;;;;;;5096429;28;20394;-87
2024/02/21 04:47:07;;;;;;;1999.90;999.90;;;10.60;99.90;;;;;;5096696;28;20052;-88
2024/02/21 04:49:33;;;;;;;1999.90;999.90;;;10.60;99.90;;;;;;5114897;28;20027;-87
2024/02/21 04:51:58;;;;;;;1999.90;999.90;;;10.60;99.90;;;;;;5114879;28;20363;-87
2024/02/21 04:54:24;;;;;;;1999.90;999.90;;;10.50;99.90;;;;;;5114767;28;20023;-87
2024/02/21 04:56:50;;;;;;;1999.90;999.90;;;10.50;99.90;;;;;;5096203;28;20533;-87
2024/02/21 04:59:16;;;;;;;1999.90;999.90;;;10.50;99.90;;;;;;5114520;28;20033;-87
2024/02/21 05:01:42;;;;;;;1999.90;999.90;;;10.50;99.90;;;;;;5096144;28;20497;-87
2024/02/21 05:04:08;;;;;;;1999.90;999.90;;;10.50;99.90;;;;;;5114701;28;20020;-87
2024/02/21 05:06:41;;;;;;;1999.90;999.90;;;10.50;99.90;;;;;;5114438;28;20111;-87
2024/02/21 05:09:08;;;;;;;1999.90;999.90;;;10.50;99.90;;;;;;5095824;28;20520;-87
2024/02/21 05:11:34;;;;;;;1999.90;999.90;;;10.50;99.90;;;;;;5114437;28;20028;-87
2024/02/21 05:14:00;;;;;;;1999.90;999.90;;;10.50;99.90;;;;;;5114340;28;20032;-87
2024/02/21 05:16:26;;;;;;;1999.90;999.90;;;10.40;99.90;;;;;;5114233;28;20019;-87
2024/02/21 05:18:52;;;;;;;1999.90;999.90;;;10.40;99.90;;;;;;5095899;28;20486;-87
2024/02/21 05:21:17;;;;;;;1999.90;999.90;;;10.30;99.90;;;;;;5114108;28;20020;-87
2024/02/21 05:23:43;;;;;;;1999.90;999.90;;;10.20;99.90;;;;;;5113695;28;20144;-87
2024/02/21 05:26:09;;;;;;;1999.90;999.90;;;10.20;99.90;;;;;;5095740;28;20076;-87
2024/02/21 05:28:34;;;;;;;1999.90;999.90;;;10.10;99.90;;;;;;5099163;28;20039;-87
2024/02/21 05:31:00;;;;;;;1999.90;999.90;;;10.10;99.90;;;;;;5093995;28;20043;-87
2024/02/21 05:33:26;;;;;;;1999.90;999.90;;;10.10;99.90;;;;;;5103952;28;20024;-87
2024/02/21 05:35:52;;;;;;;1999.90;999.90;;;10.10;99.90;;;;;;5095538;28;20533;-87
2024/02/21 05:38:17;;;;;;;1999.90;999.90;;;10.00;99.90;;;;;;5095617;28;20030;-87
2024/02/21 05:40:45;;;;;;;1999.90;999.90;;;10.00;99.90;;;;;;5095530;28;20024;-87
2024/02/21 05:43:11;;;;;;;1999.90;999.90;;;9.90;99.90;;;;;;5092756;28;20024;-87
2024/02/21 05:45:37;;;;;;;1999.90;999.90;;;9.90;99.90;;;;;;5095219;28;20023;-87
2024/02/21 05:48:03;;;;;;;1999.90;999.90;;;9.90;99.90;;;;;;5095304;28;20019;-87
2024/02/21 05:50:29;;;;;;;1999.90;999.90;;;9.90;99.90;;;;;;5113084;28;20035;-87
2024/02/21 05:52:55;;;;;;;1999.90;999.90;;;9.90;99.90;;;;;;5113466;28;20448;-87
2024/02/21 05:55:22;;;;;;;1999.90;999.90;;;9.90;99.90;;;;;;5117308;28;20054;-87
2024/02/21 05:57:47;;;;;;;1999.90;999.90;;;9.80;99.90;;;;;;5119727;28;20020;-87
2024/02/21 06:00:14;;;;;;;1999.90;999.90;;;9.80;99.90;;;;;;5119175;28;20036;-87
2024/02/21 06:02:40;;;;;;;1999.90;999.90;;;9.80;99.90;;;;;;5118968;28;20067;-87
2024/02/21 06:05:09;;;;;;;1999.90;999.90;;;9.70;99.90;;;;;;5115683;28;20473;-88
2024/02/21 06:07:35;;;;;;;1999.90;999.90;;;9.70;99.90;;;;;;5094809;28;20023;-87
2024/02/21 06:10:02;;;;;;;1999.90;999.90;;;9.80;99.90;;;;;;5119175;28;20031;-86
2024/02/21 06:12:28;;;;;;;1999.90;999.90;;;9.90;99.90;;;;;;5119567;28;20031;-86
2024/02/21 06:14:54;;;;;;;1999.90;999.90;;;9.90;99.90;;;;;;5118219;28;20024;-86
2024/02/21 06:17:19;;;;;;;1999.90;999.90;;;9.90;99.90;;;;;;5115302;28;20413;-87
2024/02/21 06:19:45;;;;;;;1999.90;999.90;;;9.90;99.90;;;;;;5093545;28;20032;-87
2024/02/21 06:22:11;;;;;;;1999.90;999.90;;;9.90;99.90;;;;;;5075812;28;20012;-86
2024/02/21 06:24:37;;;;;;;1999.90;999.90;;;10.00;99.90;;;;;;5112841;28;20496;-86
2024/02/21 06:27:06;;;;;;;1999.90;999.90;;;9.90;99.90;;;;;;5112831;28;20020;-87
2024/02/21 06:29:32;;;;;;;1999.90;999.90;;;9.80;99.90;;;;;;5092377;28;20031;-87
2024/02/21 06:31:58;;;;;;;1999.90;999.90;;;9.80;99.90;;;;;;5092491;28;20026;-87
2024/02/21 06:34:24;;;;;;;1999.90;999.90;;;9.80;99.90;;;;;;5093188;28;20115;-87
2024/02/21 06:36:50;;;;;;;1999.90;999.90;;;9.70;99.90;;;;;;5111363;28;20073;-87
2024/02/21 06:39:16;;;;;;;1999.90;999.90;;;9.70;99.90;;;;;;5111599;28;20081;-87
2024/02/21 06:41:42;;;;;;;1999.90;999.90;;;9.60;99.90;;;;;;5100775;28;20440;-87
2024/02/21 06:44:08;;;;;;;1999.90;999.90;;;9.60;99.90;;;;;;5109282;28;20073;-86
2024/02/21 06:46:33;;;;;;;1999.90;999.90;;;9.60;99.90;;;;;;5110996;28;20024;-87
2024/02/21 06:49:00;;;;;;;1999.90;999.90;;;9.60;99.90;;;;;;5112094;28;20042;-87
2024/02/21 06:51:27;;;;;;;1999.90;999.90;;;9.60;99.90;;;;;;5093941;28;20042;-87
2024/02/21 06:53:54;;;;;;;1999.90;999.90;;;9.60;99.90;;;;;;5111940;28;20024;-87
2024/02/21 06:56:19;;;;;;;1999.90;999.90;;;9.60;99.90;;;;;;5109382;28;20106;-88
2024/02/21 06:58:45;;;;;;;1999.90;999.90;;;9.50;99.90;;;;;;5110960;28;20077;-87
2024/02/21 07:01:11;;;;;;;1999.90;999.90;;;9.40;99.90;;;;;;5092548;28;20494;-87
2024/02/21 07:03:37;;;;;;;1999.90;999.90;;;9.40;99.90;;;;;;5112126;28;20027;-87
2024/02/21 07:06:03;;;;;;;1999.90;999.90;;;9.30;99.90;;;;;;5090683;28;20047;-87
2024/02/21 07:08:28;;;;;;;1999.90;999.90;;;9.30;99.90;;;;;;5110979;28;20084;-87
2024/02/21 07:10:54;;;;;;;1999.90;999.90;;;9.30;99.90;;;;;;5111559;28;20020;-87
2024/02/21 07:13:21;;;;;;;1999.90;999.90;;;9.30;99.90;;;;;;5106357;28;20608;-88
2024/02/21 07:15:47;;;;;;;1999.90;999.90;;;9.30;99.90;;;;;;5083481;28;20039;-87
2024/02/21 07:18:13;;;;;;;1999.90;999.90;;;9.30;99.90;;;;;;5083617;28;20042;-85
2024/02/21 07:20:41;;;;;;;1999.90;999.90;;;9.30;99.90;;;;;;5102773;28;20035;-88
2024/02/21 07:23:07;;;;;;;1999.90;999.90;;;9.30;99.90;;;;;;5104085;28;20482;-88
2024/02/21 07:25:33;;;;;;;1999.90;999.90;;;9.30;99.90;;;;;;5103817;28;20032;-87
2024/02/21 07:27:58;;;;;;;1999.90;999.90;;;9.30;99.90;;;;;;5093311;28;20028;-86
2024/02/21 07:30:24;;;;;;;1999.90;999.90;;;9.30;99.90;;;;;;5084511;28;20116;-83
2024/02/21 07:32:50;;;;;;;1999.90;999.90;;;9.30;99.90;;;;;;5100622;28;20031;-77
2024/02/21 07:35:18;;;;;;;1999.90;999.90;;;9.40;99.90;;;;;;5107171;28;20028;-77
2024/02/21 07:37:43;;;;;;;1999.90;999.90;;;9.40;99.90;;;;;;5103772;28;20150;-79
2024/02/21 07:40:13;;;;;;;1999.90;999.90;;;9.40;99.90;;;;;;5124759;28;20041;-79
2024/02/21 07:42:43;;;;;;;1999.90;999.90;;;9.40;99.90;;;;;;5102090;28;20035;-77
2024/02/21 07:45:09;;;;;;;1999.90;999.90;;;9.40;99.90;;;;;;5075518;28;20023;-77
2024/02/21 07:47:34;;;;;;;1999.90;999.90;;;9.30;99.90;;;;;;5121543;27;20081;-78
2024/02/21 07:50:01;;;;;;;1999.90;999.90;;;9.30;99.90;;;;;;5112303;28;20114;-76
2024/02/21 07:52:26;;;;;;;1999.90;999.90;;;9.40;99.90;;;;;;5101334;28;20031;-79
2024/02/21 07:54:52;;;;;;;1999.90;999.90;;;9.40;99.90;;;;;;5106043;28;20611;-76
2024/02/21 07:57:18;;;;;;;1999.90;999.90;;;9.40;99.90;;;;;;5102731;28;20119;-80
2024/02/21 07:59:43;;;;;;;1999.90;999.90;;;9.40;99.90;;;;;;5097073;28;20393;-76
2024/02/21 08:02:09;;;;;;;1999.90;999.90;;;9.50;99.90;;;;;;5103238;27;20031;-79
2024/02/21 08:04:35;;;;;;;1999.90;999.90;;;9.40;99.90;;;;;;5091017;28;20028;-75
2024/02/21 08:07:02;;;;;;;1999.90;999.90;;;9.50;99.90;;;;;;5106772;28;20390;-76
2024/02/21 08:09:28;;;;;;;1999.90;999.90;;;9.50;99.90;;;;;;5103557;28;20028;-75
2024/02/21 08:11:57;;;;;;;1999.90;999.90;;;9.50;99.90;;;;;;5091874;28;20852;-76
2024/02/21 08:14:24;;;;;;;1999.90;999.90;;;9.50;99.90;;;;;;5105140;28;20028;-77
2024/02/21 08:16:54;;;;;;;1999.90;999.90;;;9.50;99.90;;;;;;5106549;28;20031;-76
2024/02/21 08:19:20;;;;;;;1999.90;999.90;;;9.50;99.90;;;;;;5076495;28;20028;-76
2024/02/21 08:21:46;;;;;;;1999.90;999.90;;;9.50;99.90;;;;;;5100753;28;20016;-77
2024/02/21 08:24:13;;;;;;;1999.90;999.90;;;9.60;99.90;;;;;;5107870;28;20043;-76
2024/02/21 08:26:41;;;;;;;1999.90;999.90;;;9.70;99.90;;;;;;5101016;27;20024;-76
2024/02/21 08:29:07;;;;;;;1999.90;999.90;;;9.70;99.90;;;;;;5109079;28;20062;-77
2024/02/21 08:31:34;;;;;;;1999.90;999.90;;;9.80;99.90;;;;;;5103679;28;20055;-78
2024/02/21 08:34:03;;;;;;;1999.90;999.90;;;9.80;99.90;;;;;;5103829;28;20027;-78
2024/02/21 08:36:30;;;;;;;1999.90;999.90;;;9.80;99.90;;;;;;5100595;28;20538;-77
2024/02/21 08:38:56;;;;;;;1999.90;999.90;;;9.90;99.90;;;;;;5108043;28;20122;-78
2024/02/21 08:41:23;;;;;;;1999.90;999.90;;;9.90;99.90;;;;;;5105541;28;20119;-77
2024/02/21 08:43:56;;;;;;;1999.90;999.90;;;9.90;99.90;;;;;;5105668;28;20022;-81
2024/02/21 08:46:24;;;;;;;1999.90;999.90;;;9.90;99.90;;;;;;5090814;27;20027;-80
2024/02/21 08:48:53;;;;;;;1999.90;999.90;;;9.90;99.90;;;;;;5090908;28;20046;-78
2024/02/21 08:51:19;;;;;;;1999.90;999.90;;;10.20;99.90;;;;;;5099075;28;20663;-76
2024/02/21 08:53:49;;;;;;;1999.90;999.90;;;10.40;99.90;;;;;;5114407;27;20063;-77
2024/02/21 08:56:15;;;;;;;1999.90;999.90;;;10.50;99.90;;;;;;5083319;28;20495;-76
2024/02/21 08:58:41;;;;;;;1999.90;999.90;;;10.50;99.90;;;;;;5100597;27;20028;-76
2024/02/21 09:01:10;;;;;;;1999.90;999.90;;;10.50;99.90;;;;;;5107139;28;20039;-76
2024/02/21 09:03:37;;;;;;;1999.90;999.90;;;10.50;99.90;;;;;;5080595;28;20038;-74
2024/02/21 09:06:04;;;;;;;1999.90;999.90;;;10.40;99.90;;;;;;5081863;28;20063;-75
2024/02/21 09:08:29;;;;;;;1999.90;999.90;;;10.50;99.90;;;;;;5102857;28;20035;-75
2024/02/21 09:10:55;;;;;;;1999.90;999.90;;;10.50;99.90;;;;;;5102246;28;20445;-76
2024/02/21 09:13:21;;;;;;;1999.90;999.90;;;10.50;99.90;;;;;;5103205;28;20382;-75
2024/02/21 09:15:48;;;;;;;1999.90;999.90;;;10.40;99.90;;;;;;5107433;28;20036;-76
2024/02/21 09:18:14;;;;;;;1999.90;999.90;;;10.50;99.90;;;;;;5078030;28;20032;-76
2024/02/21 09:20:40;;;;;;;1999.90;999.90;;;10.40;99.90;;;;;;5101556;28;20057;-75
2024/02/21 09:23:06;;;;;;;1999.90;999.90;;;10.40;99.90;;;;;;5100858;28;20058;-79
2024/02/21 09:25:31;;;;;;;1999.90;999.90;;;10.40;99.90;;;;;;5101312;28;20440;-75
2024/02/21 09:27:58;;;;;;;1999.90;999.90;;;10.40;99.90;;;;;;5104412;28;20643;-75
2024/02/21 09:30:24;;;;;;;1999.90;999.90;;;10.50;99.90;;;;;;5104191;28;20035;-78
2024/02/21 09:32:50;;;;;;;1999.90;999.90;;;10.50;99.90;;;;;;5103628;28;20032;-75
2024/02/21 09:35:15;;;;;;;1999.90;999.90;;;10.60;99.90;;;;;;5101033;28;20502;-76
2024/02/21 09:37:41;;;;;;;1999.90;999.90;;;10.70;99.90;;;;;;5108747;28;20027;-76
2024/02/21 09:40:07;;;;;;;1999.90;999.90;;;10.80;99.90;;;;;;5102315;28;20035;-77
2024/02/21 09:42:41;;;;;;;1999.90;999.90;;;10.80;99.90;;;;;;5103160;28;20058;-76
2024/02/21 09:45:25;;;;;;;1999.90;999.90;;;10.80;99.90;;;;;;5108613;28;20701;-79
2024/02/21 09:48:06;;;;;;;1999.90;999.90;;;11.00;99.90;;;;;;5096899;28;20076;-76
2024/02/21 09:50:35;;;;;;;1999.90;999.90;;;10.80;99.90;;;;;;5092737;28;20036;-77
2024/02/21 09:53:02;;;;;;;1999.90;999.90;;;10.80;99.90;;;;;;5105566;28;20027;-76
2024/02/21 09:55:34;;;;;;;1999.90;999.90;;;10.70;99.90;;;;;;5106079;28;20039;-77
2024/02/21 09:58:01;;;;;;;1999.90;999.90;;;10.80;99.90;;;;;;5101271;28;20405;-76
2024/02/21 10:00:27;;;;;;;1999.90;999.90;;;10.90;99.90;;;;;;5102191;28;20128;-77
2024/02/21 10:02:53;;;;;;;1999.90;999.90;;;11.00;99.90;;;;;;5098929;28;20032;-76
2024/02/21 10:05:19;;;;;;;1999.90;999.90;;;11.10;99.90;;;;;;5099797;28;20044;-79
2024/02/21 10:07:45;;;;;;;1999.90;999.90;;;11.20;99.90;;;;;;5105137;28;20031;-77
2024/02/21 10:10:11;;;;;;;1999.90;999.90;;;11.40;99.90;;;;;;5103563;28;20039;-78
2024/02/21 10:12:36;;;;;;;1999.90;999.90;;;11.60;99.90;;;;;;5104115;28;20177;-76
2024/02/21 10:15:06;;;;;;;1999.90;999.90;;;11.90;99.90;;;;;;5095831;28;20072;-78
2024/02/21 10:17:36;;;;;;;1999.90;999.90;;;12.10;99.90;;;;;;5097223;28;20118;-78
2024/02/21 10:20:11;;;;;;;1999.90;999.90;;;12.20;99.90;;;;;;5109859;28;20015;-76
2024/02/21 10:22:39;;;;;;;1999.90;999.90;;;12.20;99.90;;;;;;5101204;28;20027;-76
2024/02/21 10:25:12;;;;;;;1999.90;999.90;;;12.20;99.90;;;;;;5091590;28;20020;-75
2024/02/21 10:27:41;;;;;;;1999.90;999.90;;;12.20;99.90;;;;;;5097893;28;20514;-76
2024/02/21 10:30:14;;;;;;;1999.90;999.90;;;12.10;99.90;;;;;;5105490;28;20513;-78
2024/02/21 10:32:55;;;;;;;1999.90;999.90;;;12.10;99.90;;;;;;5099485;28;20035;-77
2024/02/21 10:35:32;;;;;;;1999.90;999.90;;;12.00;99.90;;;;;;5106711;28;20028;-77
2024/02/21 10:37:58;;;;;;;1999.90;999.90;;;11.80;99.90;;;;;;5094809;28;20047;-76
2024/02/21 10:40:31;;;;;;;1999.90;999.90;;;11.90;99.90;;;;;;5102555;28;20500;-77
2024/02/21 10:43:00;;;;;;;;;;;11.90;99.90;;;;;;5108589;28;20079;-76
2024/02/21 10:45:35;;;;;;;1999.90;999.90;;;11.90;99.90;;;;;;5097876;28;19957;-76
2024/02/21 10:48:13;;;;;;;1999.90;999.90;;;11.80;99.90;;;;;;5101753;28;20024;-78
2024/02/21 10:50:56;;;;;;;1999.90;999.90;;;11.60;99.90;;;;;;5100633;28;20059;-76
2024/02/21 10:53:40;;;;;;;1999.90;999.90;;;11.60;99.90;;;;;;5102213;28;20035;-76
2024/02/21 10:56:23;;;;;;;1999.90;999.90;;;11.70;99.90;;;;;;5095817;28;20032;-79
2024/02/21 10:58:49;;;;;;;1999.90;999.90;;;11.80;99.90;;;;;;5098987;28;20536;-76
2024/02/21 11:01:17;;;;;;;1999.90;999.90;;;11.70;99.90;;;;;;5099963;28;20036;-75
2024/02/21 11:03:45;;;;;;;1999.90;999.90;;;11.80;99.90;;;;;;5095239;28;20100;-76
2024/02/21 11:06:15;;;;;;;1999.90;999.90;;;11.80;99.90;;;;;;5108833;28;20052;-77
2024/02/21 11:08:41;;;;;;;1999.90;999.90;;;11.90;99.90;;;;;;5087808;28;20399;-76
2024/02/21 11:11:06;;;;;;;1999.90;999.90;;;11.90;99.90;;;;;;5104130;28;20031;-76
2024/02/21 11:13:35;;;;;;;1999.90;999.90;;;12.00;99.90;;;;;;5106475;28;20054;-76
2024/02/21 11:16:11;;;;;;;1999.90;999.90;;;12.20;99.90;;;;;;5089884;28;20145;-76
2024/02/21 11:18:38;;;;;;;1999.90;999.90;;;12.20;99.90;;;;;;5102310;28;20118;-78
2024/02/21 11:21:07;;;;;;;1999.90;999.90;;;12.30;99.90;;;;;;5081195;28;20078;-77
2024/02/21 11:23:32;;;;;;;1999.90;999.90;;;12.40;99.90;;;;;;5114618;27;20081;-76
2024/02/21 11:26:10;;;;;;;1999.90;999.90;;;12.40;99.90;;;;;;5120575;27;20028;-77
2024/02/21 11:28:37;;;;;;;1999.90;999.90;;;12.50;99.90;;;;;;5092057;28;20059;-77
2024/02/21 11:31:13;;;;;;;1999.90;999.90;;;12.80;99.90;;;;;;5078068;28;20028;-77
2024/02/21 11:33:41;;;;;;;1999.90;999.90;;;12.90;99.90;;;;;;5112963;28;20096;-76
2024/02/21 11:36:08;;;;;;;1999.90;999.90;;;13.00;99.90;;;;;;5105599;28;20537;-79
2024/02/21 11:38:34;;;;;;;1999.90;999.90;;;13.20;99.90;;;;;;5091470;28;20030;-79
2024/02/21 11:40:59;;;;;;;1999.90;999.90;;;13.20;99.90;;;;;;5079964;28;20483;-77
2024/02/21 11:43:25;;;;;;;1999.90;999.90;;;13.30;99.90;;;;;;5111295;28;20487;-77
2024/02/21 11:45:59;;;;;;;1999.90;999.90;;;13.40;99.90;;;;;;5111603;28;20474;-79
2024/02/21 11:48:25;;;;;;;1999.90;999.90;;;13.30;99.90;;;;;;5114914;27;20031;-79
2024/02/21 11:50:55;;;;;;;1999.90;999.90;;;13.30;99.90;;;;;;5113585;28;20596;-78
2024/02/21 11:53:21;;;;;;;1999.90;999.90;;;13.30;99.90;;;;;;5091534;28;20024;-78
2024/02/21 11:55:47;;;;;;;1999.90;999.90;;;13.30;99.90;;;;;;5114586;28;20035;-78
2024/02/21 11:58:12;;;;;;;1999.90;999.90;;;13.40;99.90;;;;;;5113243;28;20028;-80
2024/02/21 12:00:38;;;;;;;1999.90;999.90;;;13.50;99.90;;;;;;5113828;28;20073;-79
2024/02/21 12:03:04;;;;;;;1999.90;999.90;;;13.60;99.90;;;;;;5095705;28;20103;-78